Weather at Beddis Beach Helipad

Public forecast

Using degrees Celsius for public forecast. Weather courtesy of forecast.io.

Closest aviation weather report (METAR) to Beddis Beach Helipad

Closest report is Victoria International Airport, 9.2 nm (17.0 km) S.

2024/05/18 21:00 (retrieved 1 hour ago)

CYYJ 182100Z 03011KT 010V080 30SM SCT026TCU SCT055 BKN140 13/07 A3005 RMK TCU3SC1AC1 SLP176

Closest aviation forecast (TAF) to Beddis Beach Helipad

Closest forecast is Victoria International Airport, 9.2 nm (17.0 km) S.

2024/05/18 20:41 Ammendment (retrieved 1 hour ago)

TAF AMD CYYJ 182037Z 1820/1918 07010KT P6SM FEW025 BKN140 TEMPO 1820/1903 5SM -SHRA BR BKN020 FM190300 22007KT P6SM SCT050 BECMG 1904/1906 20007KT FM190900 19006KT P6SM BKN030 TEMPO 1909/1918 P6SM -SHRA BKN020 RMK NXT FCST BY 190000Z